sensor_id;sensor_type;location;lat;lon;timestamp;pressure;altitude;pressure_sealevel;temperature;humidity
2000;BME280;1001;48.87406500;9.59633600;2022-07-19T00:00:11;95595.94;;;22.36;42.21
2000;BME280;1001;48.87406500;9.59633600;2022-07-19T00:02:39;95585.38;;;22.31;42.62
2000;BME280;1001;48.87406500;9.59633600;2022-07-19T00:05:07;95593.81;;;22.20;42.72
2000;BME280;1001;48.87406500;9.59633600;2022-07-19T00:07:35;95590.00;;;22.07;43.34
2000;BME280;1001;48.87406500;9.59633600;2022-07-19T00:10:03;95596.28;;;21.98;43.41
2000;BME280;1001;48.87406500;9.59633600;2022-07-19T00:12:32;95587.91;;;22.04;43.36
2000;BME280;1001;48.87406500;9.59633600;2022-07-19T00:14:58;95588.63;;;22.28;42.56
2000;BME280;1001;48.87406500;9.59633600;2022-07-19T00:17:25;95586.47;;;22.30;42.57
2000;BME280;1001;48.87406500;9.59633600;2022-07-19T00:19:51;95583.31;;;22.28;42.44
2000;BME280;1001;48.87406500;9.59633600;2022-07-19T00:22:18;95588.78;;;22.18;42.96
2000;BME280;1001;48.87406500;9.59633600;2022-07-19T00:24:45;95594.75;;;22.10;43.52
2000;BME280;1001;48.87406500;9.59633600;2022-07-19T00:27:11;95584.59;;;21.94;44.27
2000;BME280;1001;48.87406500;9.59633600;2022-07-19T00:29:39;95584.97;;;21.87;44.37
2000;BME280;1001;48.87406500;9.59633600;2022-07-19T00:32:06;95589.69;;;21.72;44.80
2000;BME280;1001;48.87406500;9.59633600;2022-07-19T00:34:33;95591.84;;;21.69;45.13
2000;BME280;1001;48.87406500;9.59633600;2022-07-19T00:37:00;95585.06;;;21.77;45.01
2000;BME280;1001;48.87406500;9.59633600;2022-07-19T00:39:27;95586.41;;;21.75;45.19
2000;BME280;1001;48.87406500;9.59633600;2022-07-19T00:41:53;95584.34;;;21.72;45.47
2000;BME280;1001;48.87406500;9.59633600;2022-07-19T00:44:21;95582.50;;;21.72;45.24
2000;BME280;1001;48.87406500;9.59633600;2022-07-19T00:46:49;95590.25;;;21.68;45.56
2000;BME280;1001;48.87406500;9.59633600;2022-07-19T00:49:16;95589.94;;;21.70;45.56
2000;BME280;1001;48.87406500;9.59633600;2022-07-19T00:51:43;95580.44;;;21.64;45.46
2000;BME280;1001;48.87406500;9.59633600;2022-07-19T00:54:12;95584.03;;;21.54;45.71
2000;BME280;1001;48.87406500;9.59633600;2022-07-19T00:56:40;95578.78;;;21.49;46.10
2000;BME280;1001;48.87406500;9.59633600;2022-07-19T00:59:08;95575.25;;;21.54;45.82
2000;BME280;1001;48.87406500;9.59633600;2022-07-19T01:01:34;95575.47;;;21.57;46.08
2000;BME280;1001;48.87406500;9.59633600;2022-07-19T01:04:03;95577.72;;;21.69;45.77
2000;BME280;1001;48.87406500;9.59633600;2022-07-19T01:06:29;95575.34;;;21.67;45.61
2000;BME280;1001;48.87406500;9.59633600;2022-07-19T01:08:56;95583.75;;;21.75;45.56
2000;BME280;1001;48.87406500;9.59633600;2022-07-19T01:11:23;95569.00;;;21.63;45.84
2000;BME280;1001;48.87406500;9.59633600;2022-07-19T01:13:50;95572.59;;;21.54;46.18
2000;BME280;1001;48.87406500;9.59633600;2022-07-19T01:16:16;95569.22;;;21.48;46.37
2000;BME280;1001;48.87406500;9.59633600;2022-07-19T01:18:43;95574.81;;;21.47;46.43
2000;BME280;1001;48.87406500;9.59633600;2022-07-19T01:21:19;95577.91;;;21.54;46.03
2000;BME280;1001;48.87406500;9.59633600;2022-07-19T01:23:46;95573.88;;;21.56;46.29
2000;BME280;1001;48.87406500;9.59633600;2022-07-19T01:26:13;95568.72;;;21.65;45.91
2000;BME280;1001;48.87406500;9.59633600;2022-07-19T01:28:40;95571.25;;;21.75;45.93
2000;BME280;1001;48.87406500;9.59633600;2022-07-19T01:31:07;95571.03;;;21.72;45.84
2000;BME280;1001;48.87406500;9.59633600;2022-07-19T01:33:38;95561.97;;;21.73;45.84
2000;BME280;1001;48.87406500;9.59633600;2022-07-19T01:36:05;95567.78;;;21.75;46.14
2000;BME280;1001;48.87406500;9.59633600;2022-07-19T01:38:33;95567.50;;;21.76;45.94
2000;BME280;1001;48.87406500;9.59633600;2022-07-19T01:41:00;95566.41;;;21.77;46.18
2000;BME280;1001;48.87406500;9.59633600;2022-07-19T01:43:27;95568.81;;;21.79;45.61
2000;BME280;1001;48.87406500;9.59633600;2022-07-19T01:45:53;95566.28;;;21.68;46.13
2000;BME280;1001;48.87406500;9.59633600;2022-07-19T01:48:20;95566.78;;;21.70;46.06
2000;BME280;1001;48.87406500;9.59633600;2022-07-19T01:50:47;95561.63;;;21.79;45.92
2000;BME280;1001;48.87406500;9.59633600;2022-07-19T01:53:13;95569.69;;;21.74;46.04
2000;BME280;1001;48.87406500;9.59633600;2022-07-19T01:55:41;95563.56;;;21.74;46.16
2000;BME280;1001;48.87406500;9.59633600;2022-07-19T01:58:08;95562.47;;;21.75;46.14
2000;BME280;1001;48.87406500;9.59633600;2022-07-19T02:00:34;95561.91;;;21.78;45.81
2000;BME280;1001;48.87406500;9.59633600;2022-07-19T02:03:01;95563.63;;;21.68;46.18
2000;BME280;1001;48.87406500;9.59633600;2022-07-19T02:05:27;95556.56;;;21.59;46.53
2000;BME280;1001;48.87406500;9.59633600;2022-07-19T02:07:54;95555.13;;;21.66;46.25
2000;BME280;1001;48.87406500;9.59633600;2022-07-19T02:10:21;95547.88;;;21.72;45.86
2000;BME280;1001;48.87406500;9.59633600;2022-07-19T02:12:48;95549.38;;;21.78;45.75
2000;BME280;1001;48.87406500;9.59633600;2022-07-19T02:15:15;95552.25;;;21.82;45.73
2000;BME280;1001;48.87406500;9.59633600;2022-07-19T02:17:42;95548.97;;;21.90;45.17
2000;BME280;1001;48.87406500;9.59633600;2022-07-19T02:20:09;95556.47;;;21.88;45.34
2000;BME280;1001;48.87406500;9.59633600;2022-07-19T02:22:38;95554.47;;;21.75;45.47
2000;BME280;1001;48.87406500;9.59633600;2022-07-19T02:25:05;95550.06;;;21.65;45.82
2000;BME280;1001;48.87406500;9.59633600;2022-07-19T02:27:32;95542.66;;;21.43;46.19
2000;BME280;1001;48.87406500;9.59633600;2022-07-19T02:30:00;95547.81;;;21.35;46.57
2000;BME280;1001;48.87406500;9.59633600;2022-07-19T02:32:26;95545.81;;;21.27;46.50
2000;BME280;1001;48.87406500;9.59633600;2022-07-19T02:34:53;95547.97;;;21.25;46.81
2000;BME280;1001;48.87406500;9.59633600;2022-07-19T02:37:19;95541.84;;;21.24;46.53
2000;BME280;1001;48.87406500;9.59633600;2022-07-19T02:39:46;95535.44;;;21.25;46.96
2000;BME280;1001;48.87406500;9.59633600;2022-07-19T02:42:12;95538.16;;;21.20;47.13
2000;BME280;1001;48.87406500;9.59633600;2022-07-19T02:44:39;95535.28;;;21.17;46.91
2000;BME280;1001;48.87406500;9.59633600;2022-07-19T02:47:08;95536.94;;;21.13;47.22
2000;BME280;1001;48.87406500;9.59633600;2022-07-19T02:49:34;95546.56;;;21.03;47.31
2000;BME280;1001;48.87406500;9.59633600;2022-07-19T02:52:01;95548.25;;;20.94;47.27
2000;BME280;1001;48.87406500;9.59633600;2022-07-19T02:54:27;95547.47;;;20.94;47.93
2000;BME280;1001;48.87406500;9.59633600;2022-07-19T02:56:54;95538.47;;;20.90;47.74
2000;BME280;1001;48.87406500;9.59633600;2022-07-19T02:59:21;95542.78;;;20.86;47.98
2000;BME280;1001;48.87406500;9.59633600;2022-07-19T03:01:47;95531.34;;;20.85;47.94
2000;BME280;1001;48.87406500;9.59633600;2022-07-19T03:04:15;95538.81;;;20.83;48.06
2000;BME280;1001;48.87406500;9.59633600;2022-07-19T03:06:42;95529.78;;;20.84;47.35
2000;BME280;1001;48.87406500;9.59633600;2022-07-19T03:09:08;95532.81;;;20.96;47.72
2000;BME280;1001;48.87406500;9.59633600;2022-07-19T03:11:35;95532.63;;;20.88;47.33
2000;BME280;1001;48.87406500;9.59633600;2022-07-19T03:14:02;95533.03;;;20.76;47.93
2000;BME280;1001;48.87406500;9.59633600;2022-07-19T03:16:28;95525.06;;;20.76;47.97
2000;BME280;1001;48.87406500;9.59633600;2022-07-19T03:18:55;95528.00;;;20.75;47.99
2000;BME280;1001;48.87406500;9.59633600;2022-07-19T03:21:23;95525.63;;;20.73;47.35
2000;BME280;1001;48.87406500;9.59633600;2022-07-19T03:23:49;95523.25;;;20.72;47.65
2000;BME280;1001;48.87406500;9.59633600;2022-07-19T03:26:16;95530.31;;;20.81;47.44
2000;BME280;1001;48.87406500;9.59633600;2022-07-19T03:28:42;95524.66;;;20.88;46.90
2000;BME280;1001;48.87406500;9.59633600;2022-07-19T03:31:09;95524.91;;;20.91;46.92
2000;BME280;1001;48.87406500;9.59633600;2022-07-19T03:33:36;95529.25;;;21.06;45.86
2000;BME280;1001;48.87406500;9.59633600;2022-07-19T03:36:03;95527.00;;;21.18;45.91
2000;BME280;1001;48.87406500;9.59633600;2022-07-19T03:38:31;95523.91;;;21.11;45.98
2000;BME280;1001;48.87406500;9.59633600;2022-07-19T03:40:58;95512.69;;;21.14;45.57
2000;BME280;1001;48.87406500;9.59633600;2022-07-19T03:43:25;95527.00;;;21.18;45.67
2000;BME280;1001;48.87406500;9.59633600;2022-07-19T03:45:51;95526.28;;;21.13;45.89
2000;BME280;1001;48.87406500;9.59633600;2022-07-19T03:48:18;95521.97;;;21.17;45.26
2000;BME280;1001;48.87406500;9.59633600;2022-07-19T03:50:46;95525.53;;;21.07;45.58
2000;BME280;1001;48.87406500;9.59633600;2022-07-19T03:53:13;95523.69;;;21.08;45.81
2000;BME280;1001;48.87406500;9.59633600;2022-07-19T03:55:41;95525.22;;;21.32;45.23
2000;BME280;1001;48.87406500;9.59633600;2022-07-19T03:58:07;95526.84;;;21.52;44.52
2000;BME280;1001;48.87406500;9.59633600;2022-07-19T04:00:34;95525.09;;;21.42;44.82
2000;BME280;1001;48.87406500;9.59633600;2022-07-19T04:03:01;95527.03;;;21.37;44.92
2000;BME280;1001;48.87406500;9.59633600;2022-07-19T04:05:27;95522.44;;;21.42;45.60
2000;BME280;1001;48.87406500;9.59633600;2022-07-19T04:07:54;95522.16;;;21.44;45.36
2000;BME280;1001;48.87406500;9.59633600;2022-07-19T04:10:21;95525.97;;;21.56;45.27
2000;BME280;1001;48.87406500;9.59633600;2022-07-19T04:12:50;95528.00;;;21.46;45.43
2000;BME280;1001;48.87406500;9.59633600;2022-07-19T04:15:16;95524.19;;;21.52;45.10
2000;BME280;1001;48.87406500;9.59633600;2022-07-19T04:17:43;95523.81;;;21.40;44.99
2000;BME280;1001;48.87406500;9.59633600;2022-07-19T04:20:11;95531.84;;;21.35;45.84
2000;BME280;1001;48.87406500;9.59633600;2022-07-19T04:22:38;95530.84;;;21.31;46.17
2000;BME280;1001;48.87406500;9.59633600;2022-07-19T04:25:05;95533.59;;;21.44;45.46
2000;BME280;1001;48.87406500;9.59633600;2022-07-19T04:27:32;95534.56;;;21.30;46.37
2000;BME280;1001;48.87406500;9.59633600;2022-07-19T04:30:00;95532.97;;;21.52;44.80
2000;BME280;1001;48.87406500;9.59633600;2022-07-19T04:32:27;95537.34;;;21.43;45.92
2000;BME280;1001;48.87406500;9.59633600;2022-07-19T04:34:55;95537.72;;;21.55;44.99
2000;BME280;1001;48.87406500;9.59633600;2022-07-19T04:37:21;95534.34;;;21.68;44.58
2000;BME280;1001;48.87406500;9.59633600;2022-07-19T04:39:48;95540.31;;;21.79;44.59
2000;BME280;1001;48.87406500;9.59633600;2022-07-19T04:42:15;95544.66;;;21.94;44.27
2000;BME280;1001;48.87406500;9.59633600;2022-07-19T04:44:41;95548.41;;;21.93;44.00
2000;BME280;1001;48.87406500;9.59633600;2022-07-19T04:47:09;95542.59;;;21.91;45.14
2000;BME280;1001;48.87406500;9.59633600;2022-07-19T04:49:36;95541.28;;;21.88;44.96
2000;BME280;1001;48.87406500;9.59633600;2022-07-19T04:52:03;95546.16;;;21.81;45.72
2000;BME280;1001;48.87406500;9.59633600;2022-07-19T04:54:29;95543.16;;;21.88;44.41
2000;BME280;1001;48.87406500;9.59633600;2022-07-19T04:56:56;95543.94;;;21.88;44.66
2000;BME280;1001;48.87406500;9.59633600;2022-07-19T04:59:22;95539.75;;;22.01;44.38
2000;BME280;1001;48.87406500;9.59633600;2022-07-19T05:01:49;95551.28;;;21.96;45.04
2000;BME280;1001;48.87406500;9.59633600;2022-07-19T05:04:17;95548.59;;;21.96;45.00
2000;BME280;1001;48.87406500;9.59633600;2022-07-19T05:06:44;95540.78;;;21.86;47.10
2000;BME280;1001;48.87406500;9.59633600;2022-07-19T05:09:10;95541.03;;;22.03;45.45
2000;BME280;1001;48.87406500;9.59633600;2022-07-19T05:11:37;95543.44;;;22.05;47.66
2000;BME280;1001;48.87406500;9.59633600;2022-07-19T05:14:03;95537.25;;;22.09;46.49
2000;BME280;1001;48.87406500;9.59633600;2022-07-19T05:16:30;95544.56;;;22.17;44.63
2000;BME280;1001;48.87406500;9.59633600;2022-07-19T05:18:57;95542.41;;;22.19;46.69
2000;BME280;1001;48.87406500;9.59633600;2022-07-19T05:21:25;95549.81;;;22.22;47.17
2000;BME280;1001;48.87406500;9.59633600;2022-07-19T05:23:51;95548.34;;;22.30;44.89
2000;BME280;1001;48.87406500;9.59633600;2022-07-19T05:26:18;95553.38;;;22.31;43.84
2000;BME280;1001;48.87406500;9.59633600;2022-07-19T05:28:44;95558.44;;;22.33;46.21
2000;BME280;1001;48.87406500;9.59633600;2022-07-19T05:31:11;95554.69;;;22.34;45.77
2000;BME280;1001;48.87406500;9.59633600;2022-07-19T05:33:37;95551.53;;;22.32;47.98
2000;BME280;1001;48.87406500;9.59633600;2022-07-19T05:36:04;95545.69;;;22.30;48.56
2000;BME280;1001;48.87406500;9.59633600;2022-07-19T05:38:32;95552.06;;;22.48;48.10
2000;BME280;1001;48.87406500;9.59633600;2022-07-19T05:41:00;95548.22;;;22.54;48.57
2000;BME280;1001;48.87406500;9.59633600;2022-07-19T05:43:27;95542.06;;;22.72;48.44
2000;BME280;1001;48.87406500;9.59633600;2022-07-19T05:45:54;95547.03;;;22.78;48.91
2000;BME280;1001;48.87406500;9.59633600;2022-07-19T05:48:20;95543.19;;;22.84;48.08
2000;BME280;1001;48.87406500;9.59633600;2022-07-19T05:50:47;95547.31;;;22.90;48.42
2000;BME280;1001;48.87406500;9.59633600;2022-07-19T05:53:13;95550.13;;;22.99;47.89
2000;BME280;1001;48.87406500;9.59633600;2022-07-19T05:55:43;95548.72;;;23.15;47.37
2000;BME280;1001;48.87406500;9.59633600;2022-07-19T05:58:10;95554.56;;;23.31;47.86
2000;BME280;1001;48.87406500;9.59633600;2022-07-19T06:00:37;95550.72;;;23.50;47.71
2000;BME280;1001;48.87406500;9.59633600;2022-07-19T06:03:24;95550.13;;;24.03;46.07
2000;BME280;1001;48.87406500;9.59633600;2022-07-19T06:05:50;95552.56;;;24.57;44.64
2000;BME280;1001;48.87406500;9.59633600;2022-07-19T06:08:17;95552.66;;;25.36;43.34
2000;BME280;1001;48.87406500;9.59633600;2022-07-19T06:10:45;95564.03;;;26.32;42.17
2000;BME280;1001;48.87406500;9.59633600;2022-07-19T06:13:11;95561.28;;;26.83;39.07
2000;BME280;1001;48.87406500;9.59633600;2022-07-19T06:15:38;95561.31;;;27.21;36.49
2000;BME280;1001;48.87406500;9.59633600;2022-07-19T06:18:04;95569.38;;;27.59;36.75
2000;BME280;1001;48.87406500;9.59633600;2022-07-19T06:20:31;95568.84;;;27.95;35.71
2000;BME280;1001;48.87406500;9.59633600;2022-07-19T06:22:58;95561.41;;;28.21;35.52
2000;BME280;1001;48.87406500;9.59633600;2022-07-19T06:25:24;95566.38;;;28.84;35.52
2000;BME280;1001;48.87406500;9.59633600;2022-07-19T06:27:52;95564.81;;;29.28;34.58
2000;BME280;1001;48.87406500;9.59633600;2022-07-19T06:30:19;95564.91;;;29.32;33.09
2000;BME280;1001;48.87406500;9.59633600;2022-07-19T06:32:45;95569.53;;;29.43;33.60
2000;BME280;1001;48.87406500;9.59633600;2022-07-19T06:35:12;95572.44;;;29.62;33.85
2000;BME280;1001;48.87406500;9.59633600;2022-07-19T06:37:38;95571.78;;;29.78;32.28
2000;BME280;1001;48.87406500;9.59633600;2022-07-19T06:40:06;95571.19;;;29.72;33.82
2000;BME280;1001;48.87406500;9.59633600;2022-07-19T06:42:33;95571.91;;;29.93;33.24
2000;BME280;1001;48.87406500;9.59633600;2022-07-19T06:45:01;95573.38;;;29.91;32.67
2000;BME280;1001;48.87406500;9.59633600;2022-07-19T06:47:28;95564.50;;;29.78;33.39
2000;BME280;1001;48.87406500;9.59633600;2022-07-19T06:49:54;95568.19;;;29.86;33.13
2000;BME280;1001;48.87406500;9.59633600;2022-07-19T06:52:21;95570.09;;;29.97;32.32
2000;BME280;1001;48.87406500;9.59633600;2022-07-19T06:54:47;95573.25;;;29.87;33.08
2000;BME280;1001;48.87406500;9.59633600;2022-07-19T06:57:14;95566.16;;;29.34;32.53
2000;BME280;1001;48.87406500;9.59633600;2022-07-19T06:59:41;95573.38;;;29.91;31.93
2000;BME280;1001;48.87406500;9.59633600;2022-07-19T07:02:08;95578.06;;;29.94;32.66
2000;BME280;1001;48.87406500;9.59633600;2022-07-19T07:04:35;95574.31;;;30.10;32.70
2000;BME280;1001;48.87406500;9.59633600;2022-07-19T07:07:02;95571.53;;;30.07;32.26
2000;BME280;1001;48.87406500;9.59633600;2022-07-19T07:09:28;95573.19;;;30.36;32.95
2000;BME280;1001;48.87406500;9.59633600;2022-07-19T07:11:55;95577.78;;;30.23;33.05
2000;BME280;1001;48.87406500;9.59633600;2022-07-19T07:14:21;95572.66;;;30.06;32.32
2000;BME280;1001;48.87406500;9.59633600;2022-07-19T07:16:48;95573.16;;;29.84;32.43
2000;BME280;1001;48.87406500;9.59633600;2022-07-19T07:19:16;95578.19;;;29.73;32.09
2000;BME280;1001;48.87406500;9.59633600;2022-07-19T07:21:43;95568.41;;;29.44;31.72
2000;BME280;1001;48.87406500;9.59633600;2022-07-19T07:24:09;95577.03;;;29.98;34.14
2000;BME280;1001;48.87406500;9.59633600;2022-07-19T07:26:36;95571.19;;;29.96;32.26
2000;BME280;1001;48.87406500;9.59633600;2022-07-19T07:29:03;95571.81;;;30.17;34.82
2000;BME280;1001;48.87406500;9.59633600;2022-07-19T07:31:29;95574.94;;;30.44;32.73
2000;BME280;1001;48.87406500;9.59633600;2022-07-19T07:33:56;95575.00;;;30.59;32.21
2000;BME280;1001;48.87406500;9.59633600;2022-07-19T07:36:24;95564.38;;;30.66;32.04
2000;BME280;1001;48.87406500;9.59633600;2022-07-19T07:38:54;95575.56;;;30.53;31.66
2000;BME280;1001;48.87406500;9.59633600;2022-07-19T07:41:20;95570.00;;;30.34;31.69
2000;BME280;1001;48.87406500;9.59633600;2022-07-19T07:43:47;95565.88;;;30.24;32.12
2000;BME280;1001;48.87406500;9.59633600;2022-07-19T07:46:14;95562.38;;;29.84;31.70
2000;BME280;1001;48.87406500;9.59633600;2022-07-19T07:48:40;95560.78;;;29.83;33.69
2000;BME280;1001;48.87406500;9.59633600;2022-07-19T07:51:07;95559.22;;;29.70;31.92
2000;BME280;1001;48.87406500;9.59633600;2022-07-19T07:53:35;95552.59;;;29.67;32.42
2000;BME280;1001;48.87406500;9.59633600;2022-07-19T07:56:02;95556.94;;;29.96;32.91
2000;BME280;1001;48.87406500;9.59633600;2022-07-19T07:58:29;95553.53;;;30.11;32.03
2000;BME280;1001;48.87406500;9.59633600;2022-07-19T08:00:56;95564.38;;;30.26;32.47
2000;BME280;1001;48.87406500;9.59633600;2022-07-19T08:03:22;95558.47;;;30.21;31.89
2000;BME280;1001;48.87406500;9.59633600;2022-07-19T08:05:49;95557.19;;;30.30;32.30
2000;BME280;1001;48.87406500;9.59633600;2022-07-19T08:08:16;95558.97;;;30.26;32.30
2000;BME280;1001;48.87406500;9.59633600;2022-07-19T08:10:45;95551.66;;;30.39;32.07
2000;BME280;1001;48.87406500;9.59633600;2022-07-19T08:13:14;95550.22;;;30.29;33.13
2000;BME280;1001;48.87406500;9.59633600;2022-07-19T08:15:41;95544.97;;;30.21;30.85
2000;BME280;1001;48.87406500;9.59633600;2022-07-19T08:18:07;95545.63;;;30.18;31.77
2000;BME280;1001;48.87406500;9.59633600;2022-07-19T08:20:34;95545.28;;;30.19;31.97
2000;BME280;1001;48.87406500;9.59633600;2022-07-19T08:23:01;95542.94;;;30.18;31.19
2000;BME280;1001;48.87406500;9.59633600;2022-07-19T08:25:28;95542.91;;;30.30;32.07
2000;BME280;1001;48.87406500;9.59633600;2022-07-19T08:27:56;95544.28;;;30.24;33.23
2000;BME280;1001;48.87406500;9.59633600;2022-07-19T08:30:22;95547.19;;;30.31;32.91
2000;BME280;1001;48.87406500;9.59633600;2022-07-19T08:32:49;95549.47;;;30.57;31.56
2000;BME280;1001;48.87406500;9.59633600;2022-07-19T08:35:16;95548.41;;;30.34;31.60
2000;BME280;1001;48.87406500;9.59633600;2022-07-19T08:37:43;95551.31;;;30.41;31.47
2000;BME280;1001;48.87406500;9.59633600;2022-07-19T08:40:10;95539.13;;;30.19;30.83
2000;BME280;1001;48.87406500;9.59633600;2022-07-19T08:42:37;95545.75;;;30.21;30.79
2000;BME280;1001;48.87406500;9.59633600;2022-07-19T08:45:08;95551.94;;;30.10;30.94
2000;BME280;1001;48.87406500;9.59633600;2022-07-19T08:47:35;95559.34;;;30.25;30.81
2000;BME280;1001;48.87406500;9.59633600;2022-07-19T08:50:07;95551.69;;;30.27;30.32
2000;BME280;1001;48.87406500;9.59633600;2022-07-19T08:52:35;95546.06;;;30.20;30.39
2000;BME280;1001;48.87406500;9.59633600;2022-07-19T08:55:03;95540.06;;;30.39;31.05
2000;BME280;1001;48.87406500;9.59633600;2022-07-19T08:57:30;95552.75;;;30.78;31.92
2000;BME280;1001;48.87406500;9.59633600;2022-07-19T09:00:15;95547.22;;;30.74;30.07
2000;BME280;1001;48.87406500;9.59633600;2022-07-19T09:02:51;95548.13;;;30.78;29.47
2000;BME280;1001;48.87406500;9.59633600;2022-07-19T09:05:17;95555.22;;;30.99;29.83
2000;BME280;1001;48.87406500;9.59633600;2022-07-19T09:08:00;95560.81;;;31.06;30.14
2000;BME280;1001;48.87406500;9.59633600;2022-07-19T09:10:27;95556.09;;;31.03;28.41
2000;BME280;1001;48.87406500;9.59633600;2022-07-19T09:12:57;95557.97;;;30.86;28.69
2000;BME280;1001;48.87406500;9.59633600;2022-07-19T09:15:43;95564.75;;;30.92;30.08
2000;BME280;1001;48.87406500;9.59633600;2022-07-19T09:18:12;95563.47;;;31.49;31.52
2000;BME280;1001;48.87406500;9.59633600;2022-07-19T09:20:40;95562.75;;;31.52;28.41
2000;BME280;1001;48.87406500;9.59633600;2022-07-19T09:23:07;95560.84;;;31.37;28.44
2000;BME280;1001;48.87406500;9.59633600;2022-07-19T09:25:39;95558.56;;;31.39;28.92
2000;BME280;1001;48.87406500;9.59633600;2022-07-19T09:28:07;95554.44;;;30.98;29.50
2000;BME280;1001;48.87406500;9.59633600;2022-07-19T09:30:36;95553.84;;;31.20;27.83
2000;BME280;1001;48.87406500;9.59633600;2022-07-19T09:33:13;95550.81;;;31.37;29.68
2000;BME280;1001;48.87406500;9.59633600;2022-07-19T09:35:41;95552.88;;;31.28;28.68
2000;BME280;1001;48.87406500;9.59633600;2022-07-19T09:38:25;95565.19;;;31.57;27.99
2000;BME280;1001;48.87406500;9.59633600;2022-07-19T09:40:53;95563.13;;;31.50;28.17
2000;BME280;1001;48.87406500;9.59633600;2022-07-19T09:43:22;95556.06;;;31.46;28.43
2000;BME280;1001;48.87406500;9.59633600;2022-07-19T09:45:52;95558.91;;;31.69;27.97
2000;BME280;1001;48.87406500;9.59633600;2022-07-19T09:48:20;95563.81;;;31.63;28.18
2000;BME280;1001;48.87406500;9.59633600;2022-07-19T09:50:47;95565.72;;;31.63;27.97
2000;BME280;1001;48.87406500;9.59633600;2022-07-19T09:53:15;95558.81;;;31.65;28.16
2000;BME280;1001;48.87406500;9.59633600;2022-07-19T09:55:42;95563.63;;;31.56;28.42
2000;BME280;1001;48.87406500;9.59633600;2022-07-19T09:58:10;95560.16;;;31.90;29.88
2000;BME280;1001;48.87406500;9.59633600;2022-07-19T10:00:37;95550.63;;;31.61;29.18
2000;BME280;1001;48.87406500;9.59633600;2022-07-19T10:03:05;95552.56;;;31.61;28.54
2000;BME280;1001;48.87406500;9.59633600;2022-07-19T10:05:36;95558.03;;;31.65;30.34
2000;BME280;1001;48.87406500;9.59633600;2022-07-19T10:08:04;95557.47;;;32.06;29.31
2000;BME280;1001;48.87406500;9.59633600;2022-07-19T10:10:31;95551.31;;;32.09;28.61
2000;BME280;1001;48.87406500;9.59633600;2022-07-19T10:12:58;95546.81;;;31.97;29.72
2000;BME280;1001;48.87406500;9.59633600;2022-07-19T10:15:25;95557.41;;;31.87;28.40
2000;BME280;1001;48.87406500;9.59633600;2022-07-19T10:18:08;95559.25;;;32.17;29.65
2000;BME280;1001;48.87406500;9.59633600;2022-07-19T10:20:38;95555.38;;;31.99;27.73
2000;BME280;1001;48.87406500;9.59633600;2022-07-19T10:23:06;95553.69;;;31.95;28.46
2000;BME280;1001;48.87406500;9.59633600;2022-07-19T10:25:42;95545.25;;;31.96;27.87
2000;BME280;1001;48.87406500;9.59633600;2022-07-19T10:28:32;95552.03;;;31.90;27.57
2000;BME280;1001;48.87406500;9.59633600;2022-07-19T10:30:59;95547.53;;;31.94;28.23
2000;BME280;1001;48.87406500;9.59633600;2022-07-19T10:33:32;95538.94;;;32.08;29.04
2000;BME280;1001;48.87406500;9.59633600;2022-07-19T10:36:34;95540.94;;;32.30;29.81
2000;BME280;1001;48.87406500;9.59633600;2022-07-19T10:39:24;95538.69;;;32.32;29.35
2000;BME280;1001;48.87406500;9.59633600;2022-07-19T10:42:15;95531.31;;;32.33;27.28
2000;BME280;1001;48.87406500;9.59633600;2022-07-19T10:45:12;95538.56;;;32.09;28.03
2000;BME280;1001;48.87406500;9.59633600;2022-07-19T10:48:11;95529.38;;;32.14;30.41
2000;BME280;1001;48.87406500;9.59633600;2022-07-19T10:50:58;95532.66;;;32.23;29.30
2000;BME280;1001;48.87406500;9.59633600;2022-07-19T10:53:59;95521.56;;;32.47;30.17
2000;BME280;1001;48.87406500;9.59633600;2022-07-19T10:56:42;95524.22;;;32.44;28.77
2000;BME280;1001;48.87406500;9.59633600;2022-07-19T10:59:10;95521.00;;;32.57;27.54
2000;BME280;1001;48.87406500;9.59633600;2022-07-19T11:01:39;95521.50;;;32.63;29.75
2000;BME280;1001;48.87406500;9.59633600;2022-07-19T11:04:27;95509.47;;;32.41;28.05
2000;BME280;1001;48.87406500;9.59633600;2022-07-19T11:07:15;95516.78;;;32.21;27.13
2000;BME280;1001;48.87406500;9.59633600;2022-07-19T11:09:45;95506.53;;;32.11;28.87
2000;BME280;1001;48.87406500;9.59633600;2022-07-19T11:12:27;95501.41;;;32.25;28.02
2000;BME280;1001;48.87406500;9.59633600;2022-07-19T11:14:54;95497.97;;;32.48;28.44
2000;BME280;1001;48.87406500;9.59633600;2022-07-19T11:17:21;95493.63;;;32.43;28.99
2000;BME280;1001;48.87406500;9.59633600;2022-07-19T11:19:59;95490.09;;;32.58;31.18
2000;BME280;1001;48.87406500;9.59633600;2022-07-19T11:22:26;95490.22;;;32.46;28.97
2000;BME280;1001;48.87406500;9.59633600;2022-07-19T11:24:54;95487.69;;;32.76;31.02
2000;BME280;1001;48.87406500;9.59633600;2022-07-19T11:27:21;95486.50;;;32.54;28.45
2000;BME280;1001;48.87406500;9.59633600;2022-07-19T11:29:52;95485.69;;;32.73;28.52
2000;BME280;1001;48.87406500;9.59633600;2022-07-19T11:32:19;95471.41;;;32.53;27.98
2000;BME280;1001;48.87406500;9.59633600;2022-07-19T11:34:52;95475.38;;;32.40;27.30
2000;BME280;1001;48.87406500;9.59633600;2022-07-19T11:37:23;95471.06;;;32.55;27.15
2000;BME280;1001;48.87406500;9.59633600;2022-07-19T11:39:50;95471.81;;;32.74;26.77
2000;BME280;1001;48.87406500;9.59633600;2022-07-19T11:42:28;95468.41;;;32.58;25.90
2000;BME280;1001;48.87406500;9.59633600;2022-07-19T11:44:55;95473.03;;;32.58;26.57
2000;BME280;1001;48.87406500;9.59633600;2022-07-19T11:47:22;95476.19;;;32.60;26.48
2000;BME280;1001;48.87406500;9.59633600;2022-07-19T11:49:49;95467.38;;;32.66;28.28